Time;durP1;ratioP1;P1;durP2;ratioP2;P2;SDS_P1;SDS_P2;PMS_P1;PMS_P2;Temp;Humidity;BMP_temperature;BMP_pressure;BME280_temperature;BME280_humidity;BME280_pressure;Samples;Min_cycle;Max_cycle;Signal;HPM_P1;HPM_P2
2021/03/28 00:00:28;;;;;;;6.40;2.60;;;6.70;99.90;;;;;;4995325;28;20412;-79
2021/03/28 00:03:00;;;;;;;7.20;2.30;;;6.70;99.90;;;;;;5002196;28;20479;-75
2021/03/28 00:05:31;;;;;;;4.47;2.57;;;6.70;99.90;;;;;;5021190;28;20517;-75
2021/03/28 00:08:00;;;;;;;3.93;2.50;;;6.70;99.90;;;;;;5004144;28;20530;-76
2021/03/28 00:10:33;;;;;;;4.13;2.50;;;6.60;99.90;;;;;;5002387;28;20470;-74
2021/03/28 00:13:05;;;;;;;5.33;2.40;;;6.50;99.90;;;;;;5000499;28;20947;-75
2021/03/28 00:15:39;;;;;;;7.43;2.37;;;6.40;99.90;;;;;;4998383;28;20490;-75
2021/03/28 00:18:24;;;;;;;7.00;2.50;;;6.30;99.90;;;;;;4998900;28;20490;-77
2021/03/28 00:21:06;;;;;;;5.40;2.87;;;6.20;99.90;;;;;;4998647;28;20441;-75
2021/03/28 00:23:45;;;;;;;5.07;2.47;;;6.20;99.90;;;;;;5015012;28;20440;-75
2021/03/28 00:26:22;;;;;;;3.40;2.17;;;6.10;99.90;;;;;;5014815;28;20488;-75
2021/03/28 00:29:02;;;;;;;4.27;2.33;;;6.00;99.90;;;;;;5016925;28;20484;-75
2021/03/28 00:31:33;;;;;;;2.97;2.30;;;6.00;99.90;;;;;;5017425;28;20559;-75
2021/03/28 00:34:08;;;;;;;2.27;2.07;;;6.00;99.90;;;;;;5019649;28;20819;-76
2021/03/28 00:37:02;;;;;;;2.93;2.10;;;6.00;99.90;;;;;;5001600;28;20558;-75
2021/03/28 00:39:39;;;;;;;5.00;2.57;;;6.00;99.90;;;;;;5018030;28;20566;-77
2021/03/28 00:42:11;;;;;;;7.40;2.60;;;5.90;99.90;;;;;;5020168;28;20429;-75
2021/03/28 00:44:49;;;;;;;4.17;2.60;;;5.90;99.90;;;;;;5019514;28;20437;-75
2021/03/28 00:47:24;;;;;;;5.27;2.63;;;5.90;99.90;;;;;;5002736;28;20468;-76
2021/03/28 00:50:34;;;;;;;2.30;1.90;;;5.90;99.90;;;;;;5039185;28;20436;-75
2021/03/28 00:53:06;;;;;;;2.60;2.37;;;5.90;99.90;;;;;;5038177;28;20427;-75
2021/03/28 00:55:57;;;;;;;3.63;2.30;;;5.80;99.90;;;;;;5021388;28;20437;-76
2021/03/28 00:58:41;;;;;;;3.07;2.37;;;5.80;99.90;;;;;;5021534;28;20463;-75
2021/03/28 01:01:33;;;;;;;2.23;2.13;;;5.80;99.90;;;;;;5037952;28;20474;-76
2021/03/28 01:04:37;;;;;;;7.13;2.97;;;5.80;99.90;;;;;;5039614;28;20936;-75
2021/03/28 01:07:16;;;;;;;4.07;1.90;;;5.80;99.90;;;;;;5039353;28;20436;-75
2021/03/28 01:10:33;;;;;;;6.70;2.53;;;5.80;99.90;;;;;;5040703;28;20962;-75
2021/03/28 01:13:34;;;;;;;2.27;2.07;;;5.80;99.90;;;;;;5023283;28;20471;-75
2021/03/28 01:16:36;;;;;;;4.50;2.33;;;5.80;99.90;;;;;;5039790;28;20466;-75
2021/03/28 01:20:14;;;;;;;5.83;3.90;;;5.80;99.90;;;;;;5041077;28;20471;-75
2021/03/28 01:23:01;;;;;;;2.70;2.17;;;5.80;99.90;;;;;;5039620;28;20538;-75
2021/03/28 01:25:58;;;;;;;5.93;3.10;;;5.80;99.90;;;;;;5040702;28;20439;-75
2021/03/28 01:28:30;;;;;;;4.40;2.93;;;5.80;99.90;;;;;;5019600;28;20499;-76
2021/03/28 01:31:19;;;;;;;5.63;2.60;;;5.80;99.90;;;;;;5029329;28;20535;-75
2021/03/28 01:33:51;;;;;;;6.10;3.10;;;5.80;99.90;;;;;;5018912;28;20893;-78
2021/03/28 01:36:27;;;;;;;4.80;2.80;;;5.80;99.90;;;;;;5022415;28;20920;-75
2021/03/28 01:39:07;;;;;;;2.50;2.27;;;5.80;99.90;;;;;;5019155;28;20460;-74
2021/03/28 01:41:39;;;;;;;7.03;2.67;;;5.80;99.90;;;;;;5019413;28;20859;-76
2021/03/28 01:44:14;;;;;;;3.60;2.07;;;5.80;99.90;;;;;;5021504;28;20479;-75
2021/03/28 01:46:57;;;;;;;4.90;2.60;;;5.70;99.90;;;;;;5017171;28;20947;-75
2021/03/28 01:49:38;;;;;;;3.83;2.30;;;5.70;99.90;;;;;;5016735;28;20835;-75
2021/03/28 01:52:14;;;;;;;3.83;2.93;;;5.60;99.90;;;;;;5018667;28;20430;-75
2021/03/28 01:54:54;;;;;;;4.03;2.60;;;5.60;99.90;;;;;;5017693;28;20443;-75
2021/03/28 01:57:27;;;;;;;5.93;3.13;;;5.50;99.90;;;;;;5017052;28;20451;-76
2021/03/28 02:00:32;;;;;;;5.90;2.73;;;5.40;99.90;;;;;;5015543;28;20471;-76
2021/03/28 02:03:06;;;;;;;4.23;2.50;;;5.40;99.90;;;;;;4995925;28;20456;-76
2021/03/28 02:05:55;;;;;;;4.33;2.60;;;5.40;99.90;;;;;;5010725;28;20956;-76
2021/03/28 02:08:29;;;;;;;4.17;2.83;;;5.40;99.90;;;;;;4995825;28;20820;-76
2021/03/28 02:14:31;;;;;;;5.03;3.23;;;5.40;99.90;;;;;;4995756;28;20453;-76
2021/03/28 02:17:07;;;;;;;4.80;2.30;;;5.40;99.90;;;;;;5025665;28;20476;-75
2021/03/28 02:19:37;;;;;;;4.33;2.77;;;5.50;99.90;;;;;;5014798;28;20503;-76
2021/03/28 02:22:17;;;;;;;4.10;2.53;;;5.50;99.90;;;;;;5014131;28;20547;-76
2021/03/28 02:24:51;;;;;;;4.40;2.60;;;5.50;99.90;;;;;;5013628;28;20451;-75
2021/03/28 02:27:27;;;;;;;10.07;3.30;;;5.50;99.90;;;;;;5020299;28;20513;-75
2021/03/28 02:30:08;;;;;;;5.20;2.43;;;5.50;99.90;;;;;;5034617;28;20439;-76
2021/03/28 02:32:52;;;;;;;4.20;2.70;;;5.50;99.90;;;;;;5035838;28;20471;-76
2021/03/28 02:36:03;;;;;;;8.77;3.10;;;5.50;99.90;;;;;;5020247;28;20430;-76
2021/03/28 02:39:03;;;;;;;7.53;3.00;;;5.50;99.90;;;;;;5037927;28;20491;-78
2021/03/28 02:41:42;;;;;;;6.93;2.80;;;5.50;99.90;;;;;;5018815;28;20450;-76
2021/03/28 02:44:24;;;;;;;4.07;2.67;;;5.50;99.90;;;;;;5037810;28;20517;-76
2021/03/28 02:47:01;;;;;;;4.30;2.73;;;5.50;99.90;;;;;;5036508;28;20478;-75
2021/03/28 02:49:54;;;;;;;3.70;2.20;;;5.50;99.90;;;;;;5036323;28;20443;-76
2021/03/28 02:52:38;;;;;;;5.43;2.20;;;5.50;99.90;;;;;;5035738;28;20431;-76
2021/03/28 02:55:34;;;;;;;5.07;3.10;;;5.60;99.90;;;;;;5036524;28;20880;-76
2021/03/28 02:58:38;;;;;;;2.77;2.57;;;5.60;99.90;;;;;;5004093;28;20446;-76
2021/03/28 03:01:22;;;;;;;5.00;2.90;;;5.60;99.90;;;;;;5036868;28;20475;-76
2021/03/28 03:04:08;;;;;;;7.73;3.07;;;5.60;99.90;;;;;;5020599;28;20435;-78
2021/03/28 03:07:02;;;;;;;7.17;4.63;;;5.60;99.90;;;;;;5041937;28;20799;-76
2021/03/28 03:09:44;;;;;;;6.10;3.00;;;5.60;99.90;;;;;;5040354;28;20443;-76
2021/03/28 03:12:32;;;;;;;3.40;2.60;;;5.40;99.90;;;;;;5018799;28;20451;-75
2021/03/28 03:15:20;;;;;;;5.60;2.53;;;5.30;99.90;;;;;;5019347;28;20457;-75
2021/03/28 03:18:31;;;;;;;5.33;3.63;;;5.20;99.90;;;;;;5035690;28;20447;-76
2021/03/28 03:21:39;;;;;;;9.33;2.97;;;5.10;99.90;;;;;;5035634;28;20791;-76
2021/03/28 03:25:06;;;;;;;5.20;2.60;;;4.90;99.90;;;;;;5036791;28;20438;-75
2021/03/28 03:28:16;;;;;;;4.20;2.87;;;4.80;99.90;;;;;;5036411;28;20521;-76
2021/03/28 03:31:06;;;;;;;3.37;2.40;;;4.80;99.90;;;;;;5033740;28;20574;-75
2021/03/28 03:34:10;;;;;;;4.23;2.23;;;4.70;99.90;;;;;;5034624;28;20435;-75
2021/03/28 03:37:08;;;;;;;7.90;2.90;;;4.80;99.90;;;;;;5034959;28;20485;-76
2021/03/28 03:39:49;;;;;;;2.90;2.53;;;4.80;99.90;;;;;;5000352;28;20494;-76
2021/03/28 03:42:36;;;;;;;9.70;4.50;;;4.90;99.90;;;;;;5035420;28;20432;-76
2021/03/28 03:45:40;;;;;;;5.47;2.10;;;4.90;99.90;;;;;;5036653;28;20934;-75
2021/03/28 03:48:19;;;;;;;6.50;2.80;;;5.00;99.90;;;;;;5027957;28;20462;-76
2021/03/28 03:51:01;;;;;;;5.67;2.63;;;5.10;99.90;;;;;;5038755;28;20570;-75
2021/03/28 03:53:43;;;;;;;6.33;2.70;;;5.20;99.90;;;;;;5039775;28;20918;-74
2021/03/28 03:56:21;;;;;;;3.20;2.50;;;5.30;99.90;;;;;;5022606;28;20776;-75
2021/03/28 03:59:10;;;;;;;6.00;2.27;;;5.40;99.90;;;;;;5039784;28;20440;-75
2021/03/28 04:01:53;;;;;;;6.67;3.30;;;5.40;99.90;;;;;;5020747;28;20471;-74
2021/03/28 04:04:32;;;;;;;2.90;2.60;;;5.30;99.90;;;;;;5040324;28;20443;-76
2021/03/28 04:07:24;;;;;;;7.60;2.20;;;5.30;99.90;;;;;;5021871;28;20435;-75
2021/03/28 04:10:12;;;;;;;4.83;2.27;;;5.30;99.90;;;;;;5021717;28;20514;-75
2021/03/28 04:13:07;;;;;;;3.50;2.40;;;5.20;99.90;;;;;;5021151;28;20812;-75
2021/03/28 04:15:42;;;;;;;8.63;2.83;;;5.20;99.90;;;;;;4989435;28;20950;-76
2021/03/28 04:18:40;;;;;;;3.80;2.37;;;5.20;99.90;;;;;;5021416;28;20445;-74
2021/03/28 04:21:21;;;;;;;4.40;2.87;;;5.20;99.90;;;;;;5003018;28;20435;-75
2021/03/28 04:24:06;;;;;;;5.90;2.97;;;5.20;99.90;;;;;;5039206;28;20438;-76
2021/03/28 04:26:58;;;;;;;4.90;2.57;;;5.30;99.90;;;;;;5038982;28;20516;-79
2021/03/28 04:29:27;;;;;;;5.07;2.30;;;5.40;99.90;;;;;;5039846;28;20459;-76
2021/03/28 04:32:08;;;;;;;3.00;1.90;;;5.30;99.90;;;;;;5037372;28;20844;-75
2021/03/28 04:34:52;;;;;;;3.27;2.20;;;5.30;99.90;;;;;;5038450;28;20773;-75
2021/03/28 04:37:31;;;;;;;9.13;2.80;;;5.30;99.90;;;;;;5038498;28;20834;-79
2021/03/28 04:40:29;;;;;;;3.53;2.57;;;5.30;99.90;;;;;;5038098;28;20478;-75
2021/03/28 04:43:25;;;;;;;5.77;2.77;;;5.20;99.90;;;;;;5038611;28;20436;-77
2021/03/28 04:46:37;;;;;;;2.60;1.70;;;5.10;99.90;;;;;;5020177;28;20478;-75
2021/03/28 04:49:16;;;;;;;5.70;3.00;;;5.20;99.90;;;;;;5036625;28;20486;-75
2021/03/28 04:52:45;;;;;;;4.97;3.37;;;5.20;99.90;;;;;;5039225;28;20436;-75
2021/03/28 04:55:55;;;;;;;10.57;2.77;;;5.30;99.90;;;;;;5040668;28;20474;-76
2021/03/28 04:58:47;;;;;;;2.80;2.33;;;5.20;99.90;;;;;;5041592;28;20413;-78
2021/03/28 05:01:35;;;;;;;8.30;3.80;;;5.30;99.90;;;;;;5019775;28;20479;-76
2021/03/28 05:04:30;;;;;;;3.40;2.03;;;5.20;99.90;;;;;;5038938;28;20441;-75
2021/03/28 05:07:31;;;;;;;8.40;2.70;;;5.30;99.90;;;;;;5021512;28;20436;-76
2021/03/28 05:10:29;;;;;;;4.80;2.23;;;5.20;99.90;;;;;;5020400;28;20513;-75
2021/03/28 05:13:36;;;;;;;4.60;2.10;;;5.30;99.90;;;;;;5036740;28;20435;-75
2021/03/28 05:16:40;;;;;;;2.93;2.10;;;5.40;99.90;;;;;;5035343;28;20471;-76
2021/03/28 05:19:41;;;;;;;9.27;4.00;;;5.40;99.90;;;;;;5006807;28;20554;-75
2021/03/28 05:22:54;;;;;;;8.97;2.47;;;5.40;99.90;;;;;;5001565;28;20431;-75
2021/03/28 05:26:20;;;;;;;6.17;2.33;;;5.60;99.90;;;;;;5034467;28;20447;-76
2021/03/28 05:29:21;;;;;;;4.50;2.83;;;5.50;99.90;;;;;;4938580;29;21049;-76
2021/03/28 05:32:29;;;;;;;4.80;3.20;;;5.50;99.90;;;;;;4885935;29;20512;-76
2021/03/28 05:35:28;;;;;;;5.30;2.60;;;5.60;99.90;;;;;;4939055;29;21041;-75
2021/03/28 05:38:30;;;;;;;7.20;2.57;;;5.80;99.90;;;;;;4955401;29;20439;-76
2021/03/28 05:41:27;;;;;;;4.23;2.03;;;5.90;99.90;;;;;;4955080;28;20450;-76
2021/03/28 05:44:21;;;;;;;4.60;2.10;;;6.00;99.90;;;;;;4954868;29;20436;-76
2021/03/28 05:47:05;;;;;;;7.97;2.23;;;6.30;99.90;;;;;;4952279;28;20485;-75
2021/03/28 05:49:54;;;;;;;4.63;2.40;;;6.50;99.90;;;;;;4955567;29;20443;-77
2021/03/28 05:52:53;;;;;;;3.60;2.60;;;6.50;99.90;;;;;;4959946;29;20455;-78
2021/03/28 05:55:55;;;;;;;4.53;2.63;;;6.60;99.90;;;;;;4919631;29;20451;-76
2021/03/28 05:58:53;;;;;;;4.50;2.63;;;6.40;99.90;;;;;;4946137;29;20455;-75
2021/03/28 06:02:00;;;;;;;4.10;1.80;;;6.40;99.90;;;;;;5035719;28;20956;-75
2021/03/28 06:05:04;;;;;;;6.03;2.33;;;6.40;99.90;;;;;;5014784;28;20470;-75
2021/03/28 06:08:19;;;;;;;5.73;2.57;;;6.40;99.90;;;;;;5007782;28;20441;-75
2021/03/28 06:11:23;;;;;;;3.33;1.67;;;6.50;99.90;;;;;;5036638;28;20474;-75
2021/03/28 06:14:21;;;;;;;5.07;2.40;;;6.30;99.90;;;;;;4996340;28;20517;-75
2021/03/28 06:17:22;;;;;;;5.53;2.93;;;6.20;99.90;;;;;;5033893;28;20987;-77
2021/03/28 06:20:34;;;;;;;4.17;2.20;;;6.40;99.90;;;;;;4955136;29;20503;-76
2021/03/28 06:24:05;;;;;;;2.60;2.00;;;6.50;99.90;;;;;;5034282;28;20436;-75
2021/03/28 06:27:07;;;;;;;4.43;2.27;;;6.80;99.90;;;;;;5035954;28;20528;-75
2021/03/28 06:30:14;;;;;;;3.30;1.73;;;7.10;99.90;;;;;;5035910;28;20792;-76
2021/03/28 06:33:17;;;;;;;2.80;2.13;;;7.50;99.90;;;;;;5035446;28;20462;-76
2021/03/28 06:36:30;;;;;;;4.90;3.13;;;8.00;99.90;;;;;;5001023;28;20474;-75
2021/03/28 06:39:31;;;;;;;4.97;2.10;;;7.80;99.90;;;;;;5036753;28;20479;-76
2021/03/28 06:42:26;;;;;;;3.23;1.90;;;8.00;99.90;;;;;;5034917;28;20429;-75
2021/03/28 06:45:23;;;;;;;3.70;2.07;;;7.90;99.90;;;;;;5035112;28;20462;-79
2021/03/28 06:48:33;;;;;;;5.30;1.80;;;8.00;99.90;;;;;;5035173;28;20461;-74
2021/03/28 06:51:35;;;;;;;4.17;3.03;;;8.50;99.90;;;;;;5016659;28;20511;-75
2021/03/28 06:54:50;;;;;;;4.60;2.07;;;8.80;99.90;;;;;;5017482;28;20430;-76
2021/03/28 06:58:07;;;;;;;6.10;2.27;;;8.90;99.90;;;;;;5017231;28;20827;-76
2021/03/28 07:01:21;;;;;;;6.87;2.20;;;9.20;99.40;;;;;;5033208;28;20809;-75
2021/03/28 07:04:21;;;;;;;3.57;2.10;;;9.10;99.00;;;;;;5016718;28;20469;-76
2021/03/28 07:07:02;;;;;;;5.10;3.03;;;8.80;99.30;;;;;;5001921;28;20504;-76
2021/03/28 07:09:50;;;;;;;3.27;1.73;;;8.50;99.80;;;;;;5033271;28;20420;-76
2021/03/28 07:12:28;;;;;;;4.77;2.07;;;8.10;99.90;;;;;;5017134;28;20405;-76
2021/03/28 07:15:19;;;;;;;2.27;2.07;;;8.40;99.90;;;;;;5034925;28;20421;-75
2021/03/28 07:18:29;;;;;;;3.33;1.77;;;8.60;99.60;;;;;;5020090;28;20490;-78
2021/03/28 07:21:19;;;;;;;4.67;2.13;;;8.40;99.60;;;;;;5000005;28;20410;-75
2021/03/28 07:24:38;;;;;;;3.57;2.20;;;8.30;99.90;;;;;;5039708;28;20444;-76
2021/03/28 07:27:38;;;;;;;3.30;2.30;;;8.60;99.50;;;;;;5039386;28;20456;-75
2021/03/28 07:30:34;;;;;;;4.53;2.40;;;8.30;99.40;;;;;;5032569;28;20451;-76
2021/03/28 07:33:37;;;;;;;4.83;1.90;;;8.40;99.60;;;;;;5025581;28;20458;-76
2021/03/28 07:36:48;;;;;;;4.43;1.60;;;8.30;99.90;;;;;;5039320;28;20437;-78
2021/03/28 07:39:54;;;;;;;6.03;2.23;;;8.30;99.60;;;;;;4992651;28;20455;-78
2021/03/28 07:42:46;;;;;;;3.33;1.87;;;8.10;99.90;;;;;;5030220;28;20474;-76
2021/03/28 07:45:46;;;;;;;6.10;2.20;;;8.40;99.90;;;;;;5037398;28;20408;-79
2021/03/28 07:49:07;;;;;;;4.77;2.10;;;8.70;99.60;;;;;;5039392;28;20425;-78
2021/03/28 07:52:09;;;;;;;9.37;3.27;;;9.00;99.00;;;;;;5039647;28;20510;-78
2021/03/28 07:55:04;;;;;;;4.43;2.70;;;8.90;99.00;;;;;;5020591;28;20424;-76
2021/03/28 07:58:00;;;;;;;7.50;3.00;;;8.40;99.50;;;;;;5039350;28;20471;-77
2021/03/28 08:01:09;;;;;;;3.87;1.90;;;8.60;99.80;;;;;;5021321;28;21021;-76
2021/03/28 08:04:20;;;;;;;5.53;2.30;;;9.10;99.20;;;;;;5022426;28;20857;-76
2021/03/28 08:07:04;;;;;;;4.03;2.23;;;9.30;98.70;;;;;;5039616;28;20406;-77
2021/03/28 08:09:56;;;;;;;7.23;2.60;;;9.70;98.10;;;;;;5037681;28;20423;-76
2021/03/28 08:12:44;;;;;;;4.60;2.00;;;9.50;97.90;;;;;;5038847;28;20526;-77
2021/03/28 08:15:48;;;;;;;3.60;2.00;;;9.70;97.70;;;;;;5040582;28;20453;-77
2021/03/28 08:21:33;;;;;;;6.20;2.10;;;10.00;97.00;;;;;;5023785;28;20490;-81
2021/03/28 08:24:44;;;;;;;8.20;3.40;;;10.50;95.90;;;;;;5041865;28;20432;-76
2021/03/28 08:27:51;;;;;;;13.00;4.30;;;10.60;95.30;;;;;;4978132;28;20528;-76
2021/03/28 08:30:34;;;;;;;5.47;3.03;;;10.60;95.50;;;;;;5037867;28;20475;-76
2021/03/28 08:33:45;;;;;;;3.33;2.40;;;10.50;95.40;;;;;;5023194;28;20439;-76
2021/03/28 08:36:27;;;;;;;7.00;2.70;;;10.40;95.60;;;;;;5040527;28;20402;-77
2021/03/28 08:39:16;;;;;;;5.33;2.60;;;10.50;95.60;;;;;;5040359;28;20454;-76
2021/03/28 08:42:17;;;;;;;3.30;1.80;;;10.10;95.70;;;;;;5027220;28;20463;-75
2021/03/28 08:45:30;;;;;;;4.00;2.10;;;9.60;96.70;;;;;;5045707;28;20485;-76
2021/03/28 08:48:33;;;;;;;4.80;2.00;;;9.40;97.70;;;;;;4961341;29;20425;-76
2021/03/28 08:51:38;;;;;;;3.47;2.07;;;9.60;97.70;;;;;;4959927;29;20441;-76
2021/03/28 08:54:12;;;;;;;3.50;2.00;;;11.00;94.70;;;;;;4960641;29;20822;-78
2021/03/28 08:56:56;;;;;;;4.53;2.40;;;12.90;92.40;;;;;;4948005;29;20518;-76
2021/03/28 08:59:41;;;;;;;3.87;2.60;;;14.70;88.10;;;;;;4957607;29;20527;-84
2021/03/28 09:02:36;;;;;;;6.33;2.57;;;15.10;83.00;;;;;;4941437;29;20480;-79
2021/03/28 09:05:16;;;;;;;6.53;3.23;;;14.80;82.10;;;;;;4963443;28;20454;-83
2021/03/28 09:08:02;;;;;;;6.73;2.60;;;15.60;77.40;;;;;;4961947;29;20435;-81
2021/03/28 09:11:08;;;;;;;4.23;3.63;;;17.70;71.60;;;;;;4963226;29;20443;-81
2021/03/28 09:13:48;;;;;;;3.13;2.70;;;19.00;60.90;;;;;;4968561;28;20443;-78
2021/03/28 09:16:30;;;;;;;3.50;2.57;;;21.00;55.30;;;;;;4956544;28;20478;-77
2021/03/28 09:22:39;;;;;;;4.27;2.87;;;16.10;63.00;;;;;;5019287;28;20785;-80
2021/03/28 09:25:14;;;;;;;8.27;2.87;;;17.20;64.30;;;;;;5036527;28;20528;-80
2021/03/28 09:27:50;;;;;;;7.10;2.90;;;18.80;60.40;;;;;;5023957;28;20416;-80
2021/03/28 09:30:25;;;;;;;4.70;2.90;;;21.00;54.10;;;;;;5026926;28;20847;-80
2021/03/28 09:33:20;;;;;;;4.40;2.60;;;18.70;55.70;;;;;;5037442;28;20442;-79
2021/03/28 09:36:13;;;;;;;4.50;2.30;;;17.60;57.30;;;;;;5020220;28;20477;-80
2021/03/28 09:39:44;;;;;;;7.17;2.60;;;14.70;65.10;;;;;;5019340;28;20439;-79
2021/03/28 09:42:59;;;;;;;6.93;2.80;;;14.20;63.70;;;;;;5041822;28;21022;-80
2021/03/28 09:46:02;;;;;;;3.93;2.27;;;15.30;64.40;;;;;;5040118;28;20501;-80
2021/03/28 09:49:03;;;;;;;10.97;2.57;;;17.00;62.30;;;;;;5037986;28;20489;-79
2021/03/28 09:52:06;;;;;;;5.60;3.20;;;21.00;54.30;;;;;;5069239;23;20488;-80
2021/03/28 09:54:52;;;;;;;8.07;2.77;;;21.40;50.50;;;;;;5039607;28;20447;-79
2021/03/28 09:57:45;;;;;;;3.97;1.97;;;17.50;52.30;;;;;;5056672;28;20456;-80
2021/03/28 10:00:32;;;;;;;3.40;2.23;;;18.80;54.70;;;;;;5053922;28;20538;-79
2021/03/28 10:03:14;;;;;;;3.80;2.20;;;18.20;54.00;;;;;;5053710;28;20454;-79
2021/03/28 10:05:44;;;;;;;4.60;2.80;;;19.80;52.80;;;;;;5071642;28;20498;-79
2021/03/28 10:08:19;;;;;;;4.43;2.33;;;20.50;50.20;;;;;;5053280;28;20488;-79
2021/03/28 10:11:10;;;;;;;5.37;2.80;;;17.00;52.30;;;;;;5054036;28;20441;-79
2021/03/28 10:14:05;;;;;;;7.97;2.60;;;17.00;59.00;;;;;;5033903;28;20473;-79
2021/03/28 10:16:42;;;;;;;4.53;2.70;;;18.70;54.70;;;;;;5044864;28;20532;-78
2021/03/28 10:19:24;;;;;;;5.67;2.40;;;16.60;58.20;;;;;;5050361;28;20469;-80
2021/03/28 10:22:30;;;;;;;2.30;1.70;;;18.10;54.70;;;;;;5071029;28;20954;-79
2021/03/28 10:25:29;;;;;;;4.60;1.60;;;19.70;49.50;;;;;;5069472;28;20493;-79
2021/03/28 10:28:46;;;;;;;4.37;2.20;;;18.90;50.60;;;;;;5071093;28;20477;-79
2021/03/28 10:31:25;;;;;;;3.60;2.10;;;18.40;50.40;;;;;;5034356;28;20508;-80
2021/03/28 10:34:37;;;;;;;5.60;2.20;;;15.30;54.50;;;;;;5025207;28;20556;-80
2021/03/28 10:37:22;;;;;;;2.77;1.97;;;15.00;57.90;;;;;;5050997;28;20487;-79
2021/03/28 10:40:10;;;;;;;3.07;2.00;;;14.60;57.00;;;;;;5057172;28;20470;-81
2021/03/28 10:42:55;;;;;;;4.60;1.87;;;15.30;57.00;;;;;;5025405;28;20430;-80
2021/03/28 10:45:43;;;;;;;4.60;2.40;;;17.10;53.10;;;;;;5042543;28;20835;-83
2021/03/28 10:48:48;;;;;;;2.63;2.20;;;16.00;52.70;;;;;;5057601;28;20445;-79
2021/03/28 10:51:54;;;;;;;3.70;2.70;;;17.30;52.20;;;;;;5040559;28;20525;-80
2021/03/28 10:54:49;;;;;;;4.40;2.37;;;18.30;49.20;;;;;;5058380;28;20416;-78
2021/03/28 10:58:03;;;;;;;4.17;2.07;;;16.80;50.90;;;;;;5060956;28;20926;-77
2021/03/28 11:01:14;;;;;;;3.37;2.40;;;15.90;53.80;;;;;;5037607;28;20481;-80
2021/03/28 11:04:10;;;;;;;6.23;2.27;;;15.10;55.10;;;;;;5055035;28;20438;-77
2021/03/28 11:07:08;;;;;;;3.30;2.00;;;15.40;55.20;;;;;;5057039;28;20430;-81
2021/03/28 11:10:01;;;;;;;6.17;2.87;;;16.00;55.20;;;;;;5039664;28;20460;-79
2021/03/28 11:12:58;;;;;;;4.17;2.37;;;15.60;55.20;;;;;;5040379;28;20460;-81
2021/03/28 11:15:33;;;;;;;5.07;2.27;;;14.60;55.90;;;;;;5029844;28;20438;-80
2021/03/28 11:18:36;;;;;;;5.20;2.00;;;15.20;56.20;;;;;;5044268;28;20483;-78
2021/03/28 11:21:22;;;;;;;5.80;3.67;;;16.20;54.40;;;;;;5040679;28;20467;-81
2021/03/28 11:24:17;;;;;;;2.83;2.10;;;16.10;54.20;;;;;;5048854;28;20421;-78
2021/03/28 11:27:21;;;;;;;2.63;2.43;;;16.00;54.10;;;;;;5048383;28;20454;-80
2021/03/28 11:30:03;;;;;;;4.37;2.40;;;15.50;54.20;;;;;;5061272;28;20461;-76
2021/03/28 11:32:56;;;;;;;5.53;2.70;;;16.50;53.20;;;;;;5022184;28;20829;-81
2021/03/28 11:35:28;;;;;;;6.37;2.20;;;18.10;50.10;;;;;;5046739;28;20459;-79
2021/03/28 11:38:37;;;;;;;6.43;2.27;;;17.90;48.20;;;;;;5027548;28;20424;-78
2021/03/28 11:41:56;;;;;;;7.10;2.93;;;18.70;49.20;;;;;;5029828;28;20463;-78
2021/03/28 11:44:34;;;;;;;4.33;1.70;;;18.70;47.60;;;;;;4967079;29;20426;-78
2021/03/28 11:47:32;;;;;;;4.30;2.13;;;17.90;48.60;;;;;;4982428;28;20473;-78
2021/03/28 11:50:30;;;;;;;3.53;2.30;;;20.20;47.20;;;;;;4985667;28;20442;-77
2021/03/28 11:53:04;;;;;;;2.90;2.10;;;22.30;43.60;;;;;;4987834;28;20521;-78
2021/03/28 11:55:55;;;;;;;2.90;2.23;;;22.60;42.30;;;;;;4974066;28;20461;-78
2021/03/28 11:58:50;;;;;;;2.30;1.50;;;22.30;41.80;;;;;;4972942;28;20457;-79
2021/03/28 12:02:00;;;;;;;3.93;1.40;;;21.80;40.70;;;;;;4960466;29;20485;-77
2021/03/28 12:04:30;;;;;;;3.43;2.10;;;20.30;44.40;;;;;;4951544;29;20513;-76
2021/03/28 12:07:14;;;;;;;2.57;1.80;;;21.10;42.00;;;;;;4970708;28;20478;-77
2021/03/28 12:09:47;;;;;;;5.40;1.90;;;19.10;44.60;;;;;;4954988;29;20487;-76
2021/03/28 12:12:25;;;;;;;4.50;2.30;;;20.30;43.40;;;;;;4923898;29;20443;-78
2021/03/28 12:15:36;;;;;;;3.00;2.37;;;20.00;43.00;;;;;;4994135;28;20507;-77
2021/03/28 12:18:33;;;;;;;3.70;2.00;;;21.00;42.40;;;;;;5031747;28;20479;-78
2021/03/28 12:24:42;;;;;;;3.20;1.60;;;22.90;40.50;;;;;;5034266;28;20443;-76
2021/03/28 12:27:30;;;;;;;3.10;1.97;;;24.00;38.40;;;;;;5003375;28;20470;-80
2021/03/28 12:29:59;;;;;;;3.07;2.30;;;21.80;38.70;;;;;;5014777;28;20432;-76
2021/03/28 12:32:51;;;;;;;3.93;2.23;;;21.40;40.80;;;;;;5032879;28;20471;-77
2021/03/28 12:35:34;;;;;;;4.93;2.10;;;20.30;41.80;;;;;;5033538;28;20420;-77
2021/03/28 12:38:38;;;;;;;5.63;1.97;;;16.40;45.40;;;;;;5034532;28;20416;-77
2021/03/28 12:41:24;;;;;;;7.63;3.27;;;16.00;48.10;;;;;;5028971;28;20517;-77
2021/03/28 12:43:56;;;;;;;4.03;2.20;;;16.40;49.50;;;;;;5028721;28;20787;-78
2021/03/28 12:46:59;;;;;;;2.63;1.87;;;16.50;47.80;;;;;;5028504;28;20482;-78
2021/03/28 12:49:57;;;;;;;4.07;2.17;;;16.80;48.70;;;;;;4990803;28;20447;-77
2021/03/28 12:52:37;;;;;;;10.37;3.00;;;18.20;46.60;;;;;;5031347;28;20487;-77
2021/03/28 12:55:16;;;;;;;2.40;1.50;;;18.00;46.40;;;;;;5015782;28;20513;-78
2021/03/28 12:57:48;;;;;;;3.93;2.50;;;17.90;47.30;;;;;;5014609;28;20439;-79
2021/03/28 13:00:35;;;;;;;4.20;1.80;;;17.60;46.80;;;;;;5028839;28;20471;-78
2021/03/28 13:03:13;;;;;;;2.30;1.83;;;17.50;47.90;;;;;;5017167;28;20439;-78
2021/03/28 13:06:14;;;;;;;2.77;2.13;;;16.30;47.60;;;;;;5049301;28;20439;-77
2021/03/28 13:08:46;;;;;;;2.13;1.80;;;16.50;49.10;;;;;;5028521;28;20443;-77
2021/03/28 13:11:14;;;;;;;2.30;2.10;;;17.60;46.90;;;;;;5022380;28;20444;-78
2021/03/28 13:14:23;;;;;;;2.43;1.77;;;16.90;47.10;;;;;;5039771;28;20443;-79
2021/03/28 13:16:57;;;;;;;4.83;2.20;;;16.30;48.90;;;;;;5021711;28;20467;-79
2021/03/28 13:19:29;;;;;;;3.93;1.80;;;16.00;49.60;;;;;;5041689;28;20442;-79
2021/03/28 13:22:03;;;;;;;3.10;1.60;;;15.00;50.10;;;;;;5005100;28;20451;-77
2021/03/28 13:25:18;;;;;;;2.03;1.70;;;15.50;50.90;;;;;;5024650;28;20443;-79
2021/03/28 13:28:21;;;;;;;2.83;1.87;;;16.10;50.10;;;;;;5040965;28;20458;-74
2021/03/28 13:30:52;;;;;;;4.37;2.63;;;16.30;49.30;;;;;;5040825;28;20478;-78
2021/03/28 13:33:34;;;;;;;5.43;2.17;;;16.20;49.70;;;;;;5044587;28;20415;-76
2021/03/28 13:36:15;;;;;;;2.87;2.10;;;15.80;50.70;;;;;;5012548;28;20458;-77
2021/03/28 13:38:57;;;;;;;2.27;2.00;;;15.90;49.00;;;;;;5041875;28;20919;-77
2021/03/28 13:42:06;;;;;;;16.23;2.50;;;17.20;49.30;;;;;;5039959;28;20835;-69
2021/03/28 13:44:51;;;;;;;4.43;2.00;;;17.10;47.70;;;;;;5038204;28;20427;-73
2021/03/28 13:47:36;;;;;;;3.57;1.83;;;18.30;46.80;;;;;;5004548;28;20602;-67
2021/03/28 13:50:35;;;;;;;2.00;1.50;;;18.40;43.30;;;;;;5010759;28;20443;-75
2021/03/28 13:53:18;;;;;;;3.10;1.80;;;19.30;43.90;;;;;;5022621;28;20436;-74
2021/03/28 13:55:49;;;;;;;4.50;1.90;;;20.10;42.40;;;;;;5039382;28;20440;-70
2021/03/28 13:58:25;;;;;;;6.27;2.13;;;19.50;41.00;;;;;;5039768;28;20429;-71
2021/03/28 14:01:06;;;;;;;3.83;2.20;;;18.30;42.60;;;;;;5039007;28;21000;-75
2021/03/28 14:03:38;;;;;;;5.57;1.70;;;18.60;43.70;;;;;;5037173;23;20825;-67
2021/03/28 14:06:19;;;;;;;3.47;1.93;;;19.10;43.40;;;;;;5057913;28;20833;-68
2021/03/28 14:08:49;;;;;;;2.87;1.33;;;18.60;43.00;;;;;;5059262;28;20437;-65
2021/03/28 14:11:25;;;;;;;2.70;1.80;;;20.00;41.40;;;;;;5057741;28;20442;-66
2021/03/28 14:14:03;;;;;;;3.63;1.87;;;20.00;40.40;;;;;;5076164;28;20424;-67
2021/03/28 14:16:41;;;;;;;2.80;2.07;;;19.90;40.20;;;;;;5037063;28;20470;-66
2021/03/28 14:19:13;;;;;;;2.40;1.73;;;19.70;40.20;;;;;;5054937;28;21091;-65
2021/03/28 14:25:01;;;;;;;3.10;1.80;;;19.40;41.60;;;;;;5054973;28;20446;-64
2021/03/28 14:27:31;;;;;;;1.87;1.73;;;18.60;41.60;;;;;;5054379;28;20885;-66
2021/03/28 14:30:03;;;;;;;4.50;1.97;;;18.10;42.00;;;;;;5037394;28;20442;-64
2021/03/28 14:32:37;;;;;;;2.87;1.60;;;18.00;42.90;;;;;;5022941;28;20550;-65
2021/03/28 14:35:43;;;;;;;3.23;1.60;;;18.30;43.40;;;;;;5038417;28;20445;-64
2021/03/28 14:38:51;;;;;;;2.57;1.40;;;18.20;42.80;;;;;;5037129;28;20841;-64
2021/03/28 14:41:41;;;;;;;2.23;1.60;;;16.70;43.70;;;;;;5055334;28;20929;-65
2021/03/28 14:44:40;;;;;;;2.20;1.70;;;16.20;45.70;;;;;;5054467;28;20438;-64
2021/03/28 14:47:18;;;;;;;2.23;1.67;;;16.70;45.20;;;;;;5070739;28;20500;-64
2021/03/28 14:49:54;;;;;;;7.70;1.87;;;16.90;45.20;;;;;;5056289;28;20517;-66
2021/03/28 14:52:43;;;;;;;2.87;1.77;;;16.40;45.40;;;;;;5074753;28;20437;-65
2021/03/28 14:58:31;;;;;;;3.27;2.00;;;18.00;43.30;;;;;;5074445;28;20559;-64
2021/03/28 15:01:03;;;;;;;2.30;1.60;;;18.00;42.80;;;;;;5073556;28;20473;-66
2021/03/28 15:04:08;;;;;;;2.27;1.80;;;17.30;43.10;;;;;;5076663;28;20461;-65
2021/03/28 15:07:03;;;;;;;3.57;1.70;;;16.70;44.10;;;;;;5076746;28;20496;-65
2021/03/28 15:09:38;;;;;;;3.77;1.80;;;16.80;44.40;;;;;;5057691;28;20506;-64
2021/03/28 15:12:14;;;;;;;7.67;1.60;;;17.10;44.00;;;;;;5075640;28;20912;-67
2021/03/28 15:14:53;;;;;;;1.73;1.63;;;17.20;44.00;;;;;;5074818;28;20446;-65